createdAt,value
2024-05-09T00:00:47.989Z,24.55
2024-05-09T00:01:53.978Z,24.54
2024-05-09T00:03:00.093Z,24.54
2024-05-09T00:04:06.144Z,24.53
2024-05-09T00:05:14.119Z,24.53
2024-05-09T00:06:19.078Z,24.54
2024-05-09T00:07:24.417Z,24.52
2024-05-09T00:08:30.661Z,24.52
2024-05-09T00:09:36.604Z,24.53
2024-05-09T00:10:42.763Z,24.53
2024-05-09T00:11:48.927Z,24.52
2024-05-09T00:12:54.900Z,24.52
2024-05-09T00:14:00.999Z,24.5
2024-05-09T00:15:07.117Z,24.5
2024-05-09T00:16:13.176Z,24.51
2024-05-09T00:17:19.595Z,24.51
2024-05-09T00:18:25.473Z,24.51
2024-05-09T00:19:31.511Z,24.54
2024-05-09T00:20:40.492Z,24.54
2024-05-09T00:21:43.674Z,24.55
2024-05-09T00:22:49.808Z,24.55
2024-05-09T00:23:55.820Z,24.54
2024-05-09T00:25:01.937Z,24.55
2024-05-09T00:26:08.061Z,24.54
2024-05-09T00:27:14.154Z,24.56
2024-05-09T00:28:20.214Z,24.54
2024-05-09T00:29:26.391Z,24.55
2024-05-09T00:30:35.694Z,24.54
2024-05-09T00:31:38.526Z,24.55
2024-05-09T00:32:44.703Z,24.54
2024-05-09T00:33:50.929Z,24.53
2024-05-09T00:34:56.874Z,24.52
2024-05-09T00:36:02.908Z,24.52
2024-05-09T00:37:08.979Z,24.51
2024-05-09T00:38:15.112Z,24.51
2024-05-09T00:39:21.144Z,24.51
2024-05-09T00:40:35.680Z,24.51
2024-05-09T00:41:33.458Z,24.5
2024-05-09T00:42:39.475Z,24.52
2024-05-09T00:43:45.580Z,24.52
2024-05-09T00:44:51.640Z,24.52
2024-05-09T00:45:57.749Z,24.53
2024-05-09T00:47:03.993Z,24.52
2024-05-09T00:48:11.063Z,24.54
2024-05-09T00:49:16.172Z,24.53
2024-05-09T00:50:29.460Z,24.53
2024-05-09T00:51:28.201Z,24.52
2024-05-09T00:52:34.331Z,24.51
2024-05-09T00:53:40.488Z,24.52
2024-05-09T00:54:46.482Z,24.51
2024-05-09T00:55:52.649Z,24.51
2024-05-09T00:56:58.687Z,24.49
2024-05-09T00:58:04.811Z,24.49
2024-05-09T00:59:17.092Z,24.48
2024-05-09T01:00:31.150Z,24.49
2024-05-09T01:01:29.289Z,24.52
2024-05-09T01:02:35.546Z,24.51
2024-05-09T01:03:41.588Z,24.51
2024-05-09T01:04:47.762Z,24.5
2024-05-09T01:05:53.719Z,24.51
2024-05-09T01:06:59.612Z,24.51
2024-05-09T01:08:05.881Z,24.5
2024-05-09T01:09:11.867Z,24.53
2024-05-09T01:10:24.310Z,24.52
2024-05-09T01:11:24.196Z,24.52
2024-05-09T01:12:30.271Z,24.51
2024-05-09T01:13:36.270Z,24.51
2024-05-09T01:14:42.364Z,24.51
2024-05-09T01:15:48.442Z,24.51
2024-05-09T01:16:54.505Z,24.51
2024-05-09T01:18:00.919Z,24.5
2024-05-09T01:19:06.795Z,24.49
2024-05-09T01:20:19.957Z,24.5
2024-05-09T01:21:19.019Z,24.48
2024-05-09T01:22:25.038Z,24.5
2024-05-09T01:23:31.271Z,24.49
2024-05-09T01:24:37.207Z,24.49
2024-05-09T01:25:43.498Z,24.49
2024-05-09T01:26:49.364Z,24.49
2024-05-09T01:27:55.492Z,24.49
2024-05-09T01:29:01.589Z,24.49
2024-05-09T01:30:09.613Z,24.48
2024-05-09T01:31:14.254Z,24.47
2024-05-09T01:32:19.912Z,24.49
2024-05-09T01:33:26.278Z,24.5
2024-05-09T01:34:32.064Z,24.48
2024-05-09T01:35:38.293Z,24.49
2024-05-09T01:36:44.272Z,24.49
2024-05-09T01:37:50.326Z,24.5
2024-05-09T01:38:56.448Z,24.5
2024-05-09T01:40:03.527Z,24.49
2024-05-09T01:41:08.676Z,24.48
2024-05-09T01:42:14.862Z,24.48
2024-05-09T01:43:20.825Z,24.49
2024-05-09T01:44:27.014Z,24.49
2024-05-09T01:45:33.096Z,24.48
2024-05-09T01:46:39.062Z,24.47
2024-05-09T01:47:45.460Z,24.48
2024-05-09T01:48:51.362Z,24.48
2024-05-09T01:49:57.417Z,24.49
2024-05-09T01:51:03.555Z,24.48
2024-05-09T01:52:09.501Z,24.48
2024-05-09T01:53:15.750Z,24.48
2024-05-09T01:54:21.756Z,24.47
2024-05-09T01:55:27.882Z,24.48
2024-05-09T01:56:34.046Z,24.48
2024-05-09T01:57:40.055Z,24.49
2024-05-09T01:58:46.247Z,24.5
2024-05-09T01:59:52.229Z,24.5
2024-05-09T02:00:58.383Z,24.51
2024-05-09T02:02:04.591Z,24.48
2024-05-09T02:03:12.672Z,24.48
2024-05-09T02:04:16.900Z,24.48
2024-05-09T02:05:22.961Z,24.47
2024-05-09T02:06:28.810Z,24.47
2024-05-09T02:07:34.807Z,24.47
2024-05-09T02:08:41.045Z,24.5
2024-05-09T02:09:47.098Z,24.5
2024-05-09T02:10:53.347Z,24.51
2024-05-09T02:11:59.309Z,24.5
2024-05-09T02:13:05.372Z,24.51
2024-05-09T02:14:11.528Z,24.51
2024-05-09T02:15:17.566Z,24.52
2024-05-09T02:16:23.667Z,24.52
2024-05-09T02:17:29.921Z,24.52
2024-05-09T02:18:35.936Z,24.53
2024-05-09T02:19:41.973Z,24.53
2024-05-09T02:20:48.155Z,24.52
2024-05-09T02:21:54.123Z,24.52
2024-05-09T02:23:00.240Z,24.53
2024-05-09T02:24:06.359Z,24.51
2024-05-09T02:25:12.418Z,24.52
2024-05-09T02:26:18.551Z,24.52
2024-05-09T02:27:24.655Z,24.52
2024-05-09T02:28:30.674Z,24.52
2024-05-09T02:29:36.862Z,24.52
2024-05-09T02:30:42.951Z,24.52
2024-05-09T02:31:49.059Z,24.52
2024-05-09T02:32:55.228Z,24.51
2024-05-09T02:34:01.490Z,24.51
2024-05-09T02:35:07.312Z,24.49
2024-05-09T02:36:13.367Z,24.49
2024-05-09T02:37:19.447Z,24.49
2024-05-09T02:38:25.550Z,24.49
2024-05-09T02:39:31.655Z,24.5
2024-05-09T02:40:39.468Z,24.51
2024-05-09T02:41:43.828Z,24.51
2024-05-09T02:42:49.940Z,24.5
2024-05-09T02:43:55.958Z,24.49
2024-05-09T02:45:02.112Z,24.49
2024-05-09T02:46:08.201Z,24.49
2024-05-09T02:47:14.411Z,24.48
2024-05-09T02:48:20.651Z,24.48
2024-05-09T02:49:26.647Z,24.48
2024-05-09T02:50:37.942Z,24.47
2024-05-09T02:51:38.696Z,24.46
2024-05-09T02:52:44.845Z,24.46
2024-05-09T02:53:50.867Z,24.47
2024-05-09T02:54:56.944Z,24.46
2024-05-09T02:56:03.178Z,24.46
2024-05-09T02:57:09.177Z,24.47
2024-05-09T02:58:15.267Z,24.47
2024-05-09T02:59:21.472Z,24.47
2024-05-09T03:00:36.300Z,24.46
2024-05-09T03:01:33.697Z,24.46
2024-05-09T03:02:39.712Z,24.48
2024-05-09T03:03:45.833Z,24.48
2024-05-09T03:04:51.925Z,24.5
2024-05-09T03:05:57.932Z,24.49
2024-05-09T03:07:03.999Z,24.49
2024-05-09T03:08:10.204Z,24.48
2024-05-09T03:09:16.175Z,24.48
2024-05-09T03:10:28.091Z,24.47
2024-05-09T03:11:28.435Z,24.46
2024-05-09T03:12:36.549Z,24.46
2024-05-09T03:13:40.585Z,24.48
2024-05-09T03:14:46.682Z,24.47
2024-05-09T03:15:52.801Z,24.46
2024-05-09T03:16:58.930Z,24.45
2024-05-09T03:18:05.437Z,24.47
2024-05-09T03:19:11.148Z,24.47
2024-05-09T03:20:23.628Z,24.45
2024-05-09T03:21:23.229Z,24.47
2024-05-09T03:22:29.353Z,24.47
2024-05-09T03:23:35.460Z,24.49
2024-05-09T03:24:41.516Z,24.5
2024-05-09T03:25:47.678Z,24.49
2024-05-09T03:26:53.710Z,24.49
2024-05-09T03:27:59.925Z,24.5
2024-05-09T03:29:05.969Z,24.5
2024-05-09T03:30:15.585Z,24.48
2024-05-09T03:31:18.106Z,24.49
2024-05-09T03:32:24.306Z,24.49
2024-05-09T03:33:30.598Z,24.48
2024-05-09T03:34:36.379Z,24.47
2024-05-09T03:35:42.470Z,24.48
2024-05-09T03:36:48.610Z,24.47
2024-05-09T03:37:54.691Z,24.47
2024-05-09T03:39:00.749Z,24.49
2024-05-09T03:40:11.626Z,24.49
2024-05-09T03:41:12.991Z,24.49
2024-05-09T03:42:19.072Z,24.49
2024-05-09T03:43:25.159Z,24.5
2024-05-09T03:44:31.423Z,24.51
2024-05-09T03:45:37.353Z,24.5
2024-05-09T03:46:43.414Z,24.49
2024-05-09T03:47:49.719Z,24.5
2024-05-09T03:48:55.705Z,24.5
2024-05-09T03:50:01.753Z,24.49
2024-05-09T03:51:08.029Z,24.49
2024-05-09T03:52:13.896Z,24.49
2024-05-09T03:53:20.073Z,24.49
2024-05-09T03:54:26.066Z,24.48
2024-05-09T03:55:32.339Z,24.49
2024-05-09T03:56:38.334Z,24.48
2024-05-09T03:57:44.355Z,24.48
2024-05-09T03:58:50.551Z,24.48
2024-05-09T03:59:56.552Z,24.48
2024-05-09T04:01:02.714Z,24.48
2024-05-09T04:02:08.854Z,24.47
2024-05-09T04:03:15.167Z,24.48
2024-05-09T04:04:20.937Z,24.49
2024-05-09T04:05:27.160Z,24.52
2024-05-09T04:06:33.111Z,24.51
2024-05-09T04:07:39.238Z,24.5
2024-05-09T04:08:45.313Z,24.5
2024-05-09T04:09:51.409Z,24.5
2024-05-09T04:10:57.599Z,24.51
2024-05-09T04:12:03.752Z,24.51
2024-05-09T04:13:09.670Z,24.51
2024-05-09T04:14:15.841Z,24.51
2024-05-09T04:15:21.821Z,24.49
2024-05-09T04:16:27.965Z,24.5
2024-05-09T04:17:34.894Z,24.5
2024-05-09T04:18:40.266Z,24.5
2024-05-09T04:19:46.319Z,24.5
2024-05-09T04:20:52.403Z,24.49
2024-05-09T04:21:58.465Z,24.5
2024-05-09T04:23:04.612Z,24.5
2024-05-09T04:24:10.664Z,24.51
2024-05-09T04:25:16.734Z,24.5
2024-05-09T04:26:22.928Z,24.51
2024-05-09T04:27:28.965Z,24.5
2024-05-09T04:28:35.235Z,24.5
2024-05-09T04:29:41.090Z,24.5
2024-05-09T04:30:47.119Z,24.5
2024-05-09T04:31:53.456Z,24.49
2024-05-09T04:32:59.471Z,24.5
2024-05-09T04:34:05.886Z,24.49
2024-05-09T04:35:11.629Z,24.5
2024-05-09T04:36:17.698Z,24.49
2024-05-09T04:37:23.780Z,24.5
2024-05-09T04:38:29.974Z,24.51
2024-05-09T04:39:42.136Z,24.53
2024-05-09T04:40:48.268Z,24.51
2024-05-09T04:41:54.320Z,24.51
2024-05-09T04:43:00.432Z,24.51
2024-05-09T04:44:06.635Z,24.52
2024-05-09T04:45:12.575Z,24.52
2024-05-09T04:46:18.698Z,24.52
2024-05-09T04:47:24.954Z,24.52
2024-05-09T04:48:30.969Z,24.52
2024-05-09T04:49:37.052Z,24.53
2024-05-09T04:50:43.140Z,24.51
2024-05-09T04:51:49.141Z,24.52
2024-05-09T04:52:55.292Z,24.53
2024-05-09T04:54:01.351Z,24.53
2024-05-09T04:55:07.463Z,24.52
2024-05-09T04:56:13.709Z,24.52
2024-05-09T04:57:19.582Z,24.53
2024-05-09T04:58:25.727Z,24.52
2024-05-09T04:59:31.966Z,24.53
2024-05-09T05:00:39.072Z,24.53
2024-05-09T05:01:44.129Z,24.54
2024-05-09T05:02:50.235Z,24.51
2024-05-09T05:03:56.494Z,24.52
2024-05-09T05:05:02.482Z,24.51
2024-05-09T05:06:08.455Z,24.52
2024-05-09T05:07:14.507Z,24.51
2024-05-09T05:08:20.628Z,24.5
2024-05-09T05:09:26.692Z,24.51
2024-05-09T05:10:36.300Z,24.5
2024-05-09T05:11:38.965Z,24.5
2024-05-09T05:12:45.002Z,24.48
2024-05-09T05:13:51.150Z,24.48
2024-05-09T05:14:57.148Z,24.48
2024-05-09T05:16:03.249Z,24.5
2024-05-09T05:17:09.376Z,24.51
2024-05-09T05:18:15.676Z,24.5
2024-05-09T05:19:21.689Z,24.5
2024-05-09T05:20:33.230Z,24.5
2024-05-09T05:21:33.760Z,24.49
2024-05-09T05:22:39.827Z,24.51
2024-05-09T05:23:45.944Z,24.51
2024-05-09T05:24:52.030Z,24.52
2024-05-09T05:25:58.191Z,24.51
2024-05-09T05:27:04.173Z,24.53
2024-05-09T05:28:10.455Z,24.54
2024-05-09T05:29:19.507Z,24.53
2024-05-09T05:30:28.756Z,24.53
2024-05-09T05:31:29.283Z,24.53
2024-05-09T05:32:34.836Z,24.53
2024-05-09T05:33:40.856Z,24.54
2024-05-09T05:34:46.938Z,24.54
2024-05-09T05:35:53.019Z,24.55
2024-05-09T05:36:59.042Z,24.54
2024-05-09T05:38:05.272Z,24.54
2024-05-09T05:39:11.221Z,24.54
2024-05-09T05:40:28.003Z,24.56
2024-05-09T05:41:23.478Z,24.56
2024-05-09T05:42:29.844Z,24.56
2024-05-09T05:43:35.601Z,24.58
2024-05-09T05:44:41.794Z,24.6
2024-05-09T05:45:47.812Z,24.58
2024-05-09T05:46:53.973Z,24.59
2024-05-09T05:48:00.266Z,24.59
2024-05-09T05:49:06.181Z,24.6
2024-05-09T05:50:20.926Z,24.6
2024-05-09T05:51:18.323Z,24.6
2024-05-09T05:52:24.364Z,24.6
2024-05-09T05:53:30.657Z,24.6
2024-05-09T05:54:36.552Z,24.61
2024-05-09T05:55:42.815Z,24.61
2024-05-09T05:56:48.773Z,24.61
2024-05-09T05:57:54.853Z,24.59
2024-05-09T05:59:00.990Z,24.6
2024-05-09T06:00:09.614Z,24.6
2024-05-09T06:01:13.261Z,24.59
2024-05-09T06:02:19.521Z,24.61
2024-05-09T06:03:25.427Z,24.61
2024-05-09T06:04:31.490Z,24.6
2024-05-09T06:05:37.706Z,24.57
2024-05-09T06:06:43.621Z,24.57
2024-05-09T06:07:49.698Z,24.58
2024-05-09T06:08:55.815Z,24.57
2024-05-09T06:10:02.887Z,24.57
2024-05-09T06:11:08.105Z,24.57
2024-05-09T06:12:14.152Z,24.58
2024-05-09T06:13:20.193Z,24.58
2024-05-09T06:14:26.391Z,24.57
2024-05-09T06:15:32.357Z,24.59
2024-05-09T06:16:38.454Z,24.58
2024-05-09T06:17:44.823Z,24.59
2024-05-09T06:18:50.802Z,24.59
2024-05-09T06:19:56.858Z,24.58
2024-05-09T06:21:02.884Z,24.6
2024-05-09T06:22:08.933Z,24.6
2024-05-09T06:23:15.060Z,24.61
2024-05-09T06:24:21.112Z,24.61
2024-05-09T06:25:27.204Z,24.62
2024-05-09T06:26:33.382Z,24.63
2024-05-09T06:27:39.416Z,24.64
2024-05-09T06:28:45.557Z,24.65
2024-05-09T06:29:51.603Z,24.65
2024-05-09T06:30:57.740Z,24.67
2024-05-09T06:32:03.861Z,24.66
2024-05-09T06:33:11.529Z,24.65
2024-05-09T06:34:16.320Z,24.65
2024-05-09T06:35:22.121Z,24.65
2024-05-09T06:36:28.164Z,24.65
2024-05-09T06:37:34.303Z,24.65
2024-05-09T06:38:40.403Z,24.65
2024-05-09T06:39:46.485Z,24.64
2024-05-09T06:40:52.552Z,24.65
2024-05-09T06:41:58.646Z,24.63
2024-05-09T06:43:04.741Z,24.61
2024-05-09T06:44:10.933Z,24.63
2024-05-09T06:45:16.960Z,24.63
2024-05-09T06:46:23.051Z,24.61
2024-05-09T06:47:29.217Z,24.61
2024-05-09T06:48:35.386Z,24.62
2024-05-09T06:49:41.414Z,24.62
2024-05-09T06:50:47.481Z,24.62
2024-05-09T06:51:53.510Z,24.62
2024-05-09T06:52:59.628Z,24.63
2024-05-09T06:54:05.703Z,24.63
2024-05-09T06:55:11.819Z,24.63
2024-05-09T06:56:17.916Z,24.63
2024-05-09T06:57:23.990Z,24.63
2024-05-09T06:58:30.083Z,24.63
2024-05-09T06:59:36.217Z,24.62
2024-05-09T07:00:42.615Z,24.62
2024-05-09T07:01:48.412Z,24.63
2024-05-09T07:02:54.597Z,24.63
2024-05-09T07:04:00.616Z,24.64
2024-05-09T07:05:06.735Z,24.64
2024-05-09T07:06:12.774Z,24.63
2024-05-09T07:07:18.822Z,24.64
2024-05-09T07:08:24.969Z,24.63
2024-05-09T07:09:31.010Z,24.62
2024-05-09T07:10:37.463Z,24.64
2024-05-09T07:11:43.329Z,24.62
2024-05-09T07:12:49.343Z,24.63
2024-05-09T07:13:55.412Z,24.64
2024-05-09T07:15:01.478Z,24.65
2024-05-09T07:16:07.564Z,24.64
2024-05-09T07:17:13.796Z,24.65
2024-05-09T07:18:20.604Z,24.62
2024-05-09T07:19:26.039Z,24.63
2024-05-09T07:20:34.792Z,24.62
2024-05-09T07:21:38.090Z,24.63
2024-05-09T07:22:44.177Z,24.63
2024-05-09T07:23:50.320Z,24.63
2024-05-09T07:24:56.327Z,24.64
2024-05-09T07:26:02.553Z,24.64
2024-05-09T07:27:08.586Z,24.65
2024-05-09T07:28:14.741Z,24.65
2024-05-09T07:29:20.828Z,24.68
2024-05-09T07:30:33.132Z,24.67
2024-05-09T07:31:32.912Z,24.67
2024-05-09T07:32:39.298Z,24.68
2024-05-09T07:33:45.286Z,24.68
2024-05-09T07:34:51.286Z,24.69
2024-05-09T07:35:57.290Z,24.67
2024-05-09T07:37:03.379Z,24.66
2024-05-09T07:38:09.568Z,24.68
2024-05-09T07:39:15.589Z,24.67
2024-05-09T07:40:28.983Z,24.68
2024-05-09T07:41:27.816Z,24.67
2024-05-09T07:42:33.898Z,24.66
2024-05-09T07:43:39.990Z,24.65
2024-05-09T07:44:46.064Z,24.65
2024-05-09T07:45:54.698Z,24.66
2024-05-09T07:50:54.885Z,24.67
2024-05-09T07:53:32.511Z,24.68
2024-05-09T07:53:42.206Z,24.68
2024-05-09T07:54:41.104Z,24.69
2024-05-09T07:55:47.165Z,24.69
2024-05-09T07:56:53.393Z,24.68
2024-05-09T07:57:59.331Z,24.68
2024-05-09T07:59:05.295Z,24.68
2024-05-09T08:00:14.259Z,24.67
2024-05-09T08:01:17.659Z,24.69
2024-05-09T08:02:23.869Z,24.67
2024-05-09T08:03:29.868Z,24.68
2024-05-09T08:04:35.909Z,24.66
2024-05-09T08:05:42.139Z,24.66
2024-05-09T08:06:48.031Z,24.66
2024-05-09T08:07:54.104Z,24.67
2024-05-09T08:09:05.169Z,24.68
2024-05-09T08:10:08.046Z,24.68
2024-05-09T08:11:12.301Z,24.67
2024-05-09T08:12:18.479Z,24.68
2024-05-09T08:13:24.621Z,24.67
2024-05-09T08:14:30.653Z,24.68
2024-05-09T08:15:36.750Z,24.68
2024-05-09T08:16:42.812Z,24.68
2024-05-09T08:17:49.496Z,24.67
2024-05-09T08:18:55.072Z,24.69
2024-05-09T08:20:07.664Z,24.69
2024-05-09T08:21:13.316Z,24.68
2024-05-09T08:22:19.548Z,24.68
2024-05-09T08:23:25.524Z,24.68
2024-05-09T08:24:31.681Z,24.67
2024-05-09T08:25:37.704Z,24.68
2024-05-09T08:26:43.797Z,24.66
2024-05-09T08:27:50.191Z,24.66
2024-05-09T08:28:56.038Z,24.66
2024-05-09T08:30:02.149Z,24.67
2024-05-09T08:31:08.263Z,24.68
2024-05-09T08:32:14.354Z,24.67
2024-05-09T08:33:20.566Z,24.67
2024-05-09T08:34:26.667Z,24.66
2024-05-09T08:35:32.586Z,24.68
2024-05-09T08:36:38.782Z,24.69
2024-05-09T08:37:44.846Z,24.69
2024-05-09T08:38:50.847Z,24.69
2024-05-09T08:39:57.002Z,24.71
2024-05-09T08:41:03.112Z,24.71
2024-05-09T08:42:09.191Z,24.71
2024-05-09T08:43:15.404Z,24.72
2024-05-09T08:44:21.337Z,24.72
2024-05-09T08:45:27.488Z,24.71
2024-05-09T08:46:33.622Z,24.71
2024-05-09T08:47:39.716Z,24.73
2024-05-09T08:48:45.955Z,24.73
2024-05-09T08:49:51.827Z,24.73
2024-05-09T08:50:57.924Z,24.72
2024-05-09T08:52:04.049Z,24.73
2024-05-09T08:53:10.144Z,24.73
2024-05-09T08:54:16.171Z,24.73
2024-05-09T08:55:22.341Z,24.72
2024-05-09T08:56:28.406Z,24.72
2024-05-09T08:57:34.489Z,24.72
2024-05-09T08:58:40.559Z,24.72
2024-05-09T08:59:46.671Z,24.73
2024-05-09T09:00:52.940Z,24.72
2024-05-09T09:01:59.067Z,24.71
2024-05-09T09:03:05.015Z,24.7
2024-05-09T09:04:11.163Z,24.71
2024-05-09T09:05:17.307Z,24.69
2024-05-09T09:06:23.246Z,24.7
2024-05-09T09:07:29.450Z,24.69
2024-05-09T09:08:35.421Z,24.71
2024-05-09T09:09:41.643Z,24.73
2024-05-09T09:10:47.847Z,24.72
2024-05-09T09:11:53.751Z,24.71
2024-05-09T09:12:59.831Z,24.71
2024-05-09T09:14:05.793Z,24.73
2024-05-09T09:15:12.006Z,24.72
2024-05-09T09:16:18.196Z,24.71
2024-05-09T09:17:24.226Z,24.7
2024-05-09T09:18:30.800Z,24.71
2024-05-09T09:19:36.417Z,24.72
2024-05-09T09:20:42.539Z,24.72
2024-05-09T09:21:48.632Z,24.73
2024-05-09T09:22:54.629Z,24.74
2024-05-09T09:24:00.646Z,24.73
2024-05-09T09:25:06.971Z,24.72
2024-05-09T09:26:12.928Z,24.74
2024-05-09T09:27:19.025Z,24.73
2024-05-09T09:28:25.137Z,24.73
2024-05-09T09:29:31.235Z,24.73
2024-05-09T09:30:38.200Z,24.74
2024-05-09T09:31:43.434Z,24.74
2024-05-09T09:32:49.652Z,24.75
2024-05-09T09:33:55.899Z,24.75
2024-05-09T09:35:01.768Z,24.75
2024-05-09T09:36:09.721Z,24.74
2024-05-09T09:37:14.003Z,24.74
2024-05-09T09:38:20.001Z,24.75
2024-05-09T09:39:26.068Z,24.75
2024-05-09T09:40:34.057Z,24.75
2024-05-09T09:41:38.278Z,24.75
2024-05-09T09:42:44.418Z,24.75
2024-05-09T09:43:50.470Z,24.73
2024-05-09T09:45:04.265Z,24.74
2024-05-09T09:46:02.764Z,24.75
2024-05-09T09:47:08.805Z,24.75
2024-05-09T09:48:14.981Z,24.75
2024-05-09T09:49:20.910Z,24.74
2024-05-09T09:50:33.691Z,24.74
2024-05-09T09:51:33.212Z,24.75
2024-05-09T09:52:39.209Z,24.76
2024-05-09T09:53:45.322Z,24.76
2024-05-09T09:54:51.364Z,24.77
2024-05-09T09:55:57.540Z,24.76
2024-05-09T09:57:03.629Z,24.76
2024-05-09T09:58:12.176Z,24.76
2024-05-09T09:59:15.807Z,24.76
2024-05-09T10:00:27.200Z,24.76
2024-05-09T10:01:28.086Z,24.75
2024-05-09T10:02:34.250Z,24.76
2024-05-09T10:03:40.389Z,24.75
2024-05-09T10:04:46.381Z,24.75
2024-05-09T10:05:52.425Z,24.75
2024-05-09T10:06:58.536Z,24.73
2024-05-09T10:08:04.537Z,24.76
2024-05-09T10:09:10.627Z,24.76
2024-05-09T10:10:22.934Z,24.75
2024-05-09T10:11:22.986Z,24.75
2024-05-09T10:12:29.027Z,24.74
2024-05-09T10:13:35.271Z,24.75
2024-05-09T10:14:41.119Z,24.76
2024-05-09T10:15:47.320Z,24.75
2024-05-09T10:16:53.326Z,24.75
2024-05-09T10:17:59.552Z,24.74
2024-05-09T10:19:05.634Z,24.74
2024-05-09T10:20:18.232Z,24.74
2024-05-09T10:21:17.726Z,24.76
2024-05-09T10:22:23.782Z,24.74
2024-05-09T10:23:29.874Z,24.77
2024-05-09T10:24:36.032Z,24.77
2024-05-09T10:25:42.071Z,24.76
2024-05-09T10:26:48.216Z,24.76
2024-05-09T10:27:54.434Z,24.76
2024-05-09T10:29:00.392Z,24.79
2024-05-09T10:30:11.571Z,24.78
2024-05-09T10:31:12.583Z,24.77
2024-05-09T10:32:18.825Z,24.77
2024-05-09T10:33:24.819Z,24.75
2024-05-09T10:34:30.916Z,24.74
2024-05-09T10:35:36.936Z,24.76
2024-05-09T10:36:43.093Z,24.77
2024-05-09T10:37:49.662Z,24.76
2024-05-09T10:38:55.211Z,24.77
2024-05-09T10:40:01.340Z,24.78
2024-05-09T10:41:07.328Z,24.77
2024-05-09T10:42:13.490Z,24.74
2024-05-09T10:43:19.738Z,24.76
2024-05-09T10:44:25.691Z,24.75
2024-05-09T10:45:31.955Z,24.74
2024-05-09T10:46:37.871Z,24.73
2024-05-09T10:47:44.141Z,24.74
2024-05-09T10:48:50.493Z,24.74
2024-05-09T10:49:56.232Z,24.75
2024-05-09T10:51:02.172Z,24.76
2024-05-09T10:52:08.463Z,24.76
2024-05-09T10:53:14.461Z,24.76
2024-05-09T10:54:20.555Z,24.78
2024-05-09T10:55:26.685Z,24.79
2024-05-09T10:56:32.755Z,24.81
2024-05-09T10:57:38.903Z,24.8
2024-05-09T10:58:44.983Z,24.83
2024-05-09T10:59:51.038Z,24.83
2024-05-09T11:00:57.200Z,24.82
2024-05-09T11:02:03.386Z,24.82
2024-05-09T11:03:09.364Z,24.81
2024-05-09T11:04:15.485Z,24.82
2024-05-09T11:05:21.719Z,24.83
2024-05-09T11:06:27.541Z,24.82
2024-05-09T11:07:33.737Z,24.81
2024-05-09T11:08:39.763Z,24.82
2024-05-09T11:09:45.915Z,24.82
2024-05-09T11:10:52.010Z,24.83
2024-05-09T11:11:58.161Z,24.81
2024-05-09T11:13:04.322Z,24.83
2024-05-09T11:14:10.250Z,24.82
2024-05-09T11:15:16.368Z,24.83
2024-05-09T11:16:22.687Z,24.83
2024-05-09T11:17:28.735Z,24.82
2024-05-09T11:18:37.970Z,24.82
2024-05-09T11:19:40.947Z,24.83
2024-05-09T11:20:46.846Z,24.83
2024-05-09T11:21:53.128Z,24.82
2024-05-09T11:22:59.015Z,24.81
2024-05-09T11:24:07.309Z,24.82
2024-05-09T11:25:11.282Z,24.82
2024-05-09T11:26:17.291Z,24.83
2024-05-09T11:27:23.407Z,24.83
2024-05-09T11:28:29.485Z,24.84
2024-05-09T11:29:35.630Z,24.85
2024-05-09T11:30:41.773Z,24.86
2024-05-09T11:31:47.796Z,24.86
2024-05-09T11:32:53.994Z,24.84
2024-05-09T11:34:00.012Z,24.85
2024-05-09T11:35:06.087Z,24.85
2024-05-09T11:36:12.175Z,24.86
2024-05-09T11:37:18.310Z,24.86
2024-05-09T11:38:24.351Z,24.87
2024-05-09T11:39:30.495Z,24.87
2024-05-09T11:40:36.628Z,24.86
2024-05-09T11:41:42.700Z,24.85
2024-05-09T11:42:50.830Z,24.86
2024-05-09T11:43:54.813Z,24.87
2024-05-09T11:45:00.916Z,24.87
2024-05-09T11:46:07.086Z,24.88
2024-05-09T11:47:13.173Z,24.91
2024-05-09T11:48:19.336Z,24.91
2024-05-09T11:49:27.036Z,24.92
2024-05-09T11:50:35.560Z,24.93
2024-05-09T11:51:37.604Z,24.9
2024-05-09T11:52:43.592Z,24.91
2024-05-09T11:53:49.672Z,24.93
2024-05-09T11:54:55.800Z,24.92
2024-05-09T11:56:01.872Z,24.91
2024-05-09T11:57:07.957Z,24.91
2024-05-09T11:58:14.150Z,24.91
2024-05-09T11:59:20.155Z,24.93
2024-05-09T12:00:36.913Z,24.91
2024-05-09T12:01:38.545Z,24.91
2024-05-09T12:02:44.565Z,24.9
2024-05-09T12:03:50.776Z,24.93
2024-05-09T12:04:56.870Z,24.92
2024-05-09T12:06:03.096Z,24.91
2024-05-09T12:07:12.213Z,24.91
2024-05-09T12:08:15.058Z,24.93
2024-05-09T12:09:21.162Z,24.91
2024-05-09T12:10:32.880Z,24.91
2024-05-09T12:11:33.408Z,24.91
2024-05-09T12:12:39.536Z,24.89
2024-05-09T12:13:45.530Z,24.88
2024-05-09T12:14:51.588Z,24.91
2024-05-09T12:15:57.787Z,24.91
2024-05-09T12:17:03.883Z,24.91
2024-05-09T12:18:10.076Z,24.92
2024-05-09T12:19:16.071Z,24.91
2024-05-09T12:20:28.754Z,24.93
2024-05-09T12:21:28.192Z,24.91
2024-05-09T12:22:34.258Z,24.91
2024-05-09T12:23:40.354Z,24.91
2024-05-09T12:24:46.507Z,24.91
2024-05-09T12:25:52.558Z,24.91
2024-05-09T12:26:58.707Z,24.91
2024-05-09T12:28:04.794Z,24.9
2024-05-09T12:29:10.840Z,24.91
2024-05-09T12:30:24.711Z,24.91
2024-05-09T12:31:23.103Z,24.91
2024-05-09T12:32:29.228Z,24.91
2024-05-09T12:33:35.326Z,24.91
2024-05-09T12:34:41.390Z,24.91
2024-05-09T12:35:50.138Z,24.91
2024-05-09T12:36:53.569Z,24.9
2024-05-09T12:37:59.585Z,24.89
2024-05-09T12:39:05.707Z,24.89
2024-05-09T12:40:18.769Z,24.9
2024-05-09T12:41:17.895Z,24.89
2024-05-09T12:42:27.452Z,24.9
2024-05-09T12:43:30.233Z,24.9
2024-05-09T12:44:36.184Z,24.9
2024-05-09T12:45:42.342Z,24.91
2024-05-09T12:46:48.404Z,24.9
2024-05-09T12:47:54.608Z,24.91
2024-05-09T12:49:01.223Z,24.91
2024-05-09T12:50:10.869Z,24.93
2024-05-09T12:51:12.734Z,24.93
2024-05-09T12:52:18.829Z,24.9
2024-05-09T12:53:24.951Z,24.91
2024-05-09T12:54:31.129Z,24.91
2024-05-09T12:55:44.468Z,24.91
2024-05-09T12:56:43.243Z,24.91
2024-05-09T12:57:49.427Z,24.92
2024-05-09T12:58:55.410Z,24.91
2024-05-09T13:00:01.446Z,24.9
2024-05-09T13:01:07.707Z,24.91
2024-05-09T13:02:13.833Z,24.92
2024-05-09T13:03:19.992Z,24.91
2024-05-09T13:04:26.057Z,24.91
2024-05-09T13:05:32.335Z,24.92
2024-05-09T13:06:38.077Z,24.91
2024-05-09T13:07:44.179Z,24.91
2024-05-09T13:08:50.276Z,24.9
2024-05-09T13:09:56.399Z,24.91
2024-05-09T13:11:02.500Z,24.91
2024-05-09T13:12:09.080Z,24.9
2024-05-09T13:13:14.960Z,24.89
2024-05-09T13:14:20.741Z,24.89
2024-05-09T13:15:26.847Z,24.89
2024-05-09T13:16:33.180Z,24.9
2024-05-09T13:17:39.110Z,24.89
2024-05-09T13:18:45.246Z,24.91
2024-05-09T13:19:51.242Z,24.91
2024-05-09T13:20:57.323Z,24.92
2024-05-09T13:22:03.492Z,24.93
2024-05-09T13:23:09.772Z,24.92
2024-05-09T13:24:15.597Z,24.91
2024-05-09T13:25:21.730Z,24.91
2024-05-09T13:26:27.785Z,24.91
2024-05-09T13:27:33.967Z,24.91
2024-05-09T13:28:39.999Z,24.91
2024-05-09T13:29:46.068Z,24.92
2024-05-09T13:30:52.251Z,24.91
2024-05-09T13:31:58.338Z,24.89
2024-05-09T13:33:04.655Z,24.92
2024-05-09T13:34:10.974Z,24.9
2024-05-09T13:35:16.739Z,24.9
2024-05-09T13:36:22.667Z,24.9
2024-05-09T13:37:28.766Z,24.9
2024-05-09T13:38:34.821Z,24.89
2024-05-09T13:39:40.969Z,24.89
2024-05-09T13:40:47.599Z,24.88
2024-05-09T13:41:53.128Z,24.88
2024-05-09T13:42:59.292Z,24.9
2024-05-09T13:44:05.353Z,24.9
2024-05-09T13:45:11.513Z,24.89
2024-05-09T13:46:17.705Z,24.89
2024-05-09T13:47:23.650Z,24.89
2024-05-09T13:48:29.767Z,24.9
2024-05-09T13:49:35.892Z,24.91
2024-05-09T13:50:41.917Z,24.92
2024-05-09T13:51:48.008Z,24.9
2024-05-09T13:52:54.084Z,24.88
2024-05-09T13:54:00.214Z,24.9
2024-05-09T13:55:06.279Z,24.89
2024-05-09T13:56:12.376Z,24.89
2024-05-09T13:57:18.507Z,24.89
2024-05-09T13:58:24.660Z,24.9
2024-05-09T13:59:30.671Z,24.91
2024-05-09T14:00:44.354Z,24.91
2024-05-09T14:01:43.052Z,24.93
2024-05-09T14:02:48.975Z,24.93
2024-05-09T14:03:55.336Z,24.92
2024-05-09T14:05:01.303Z,24.93
2024-05-09T14:06:10.540Z,24.91
2024-05-09T14:07:13.467Z,24.92
2024-05-09T14:08:19.489Z,24.92
2024-05-09T14:09:25.494Z,24.91
2024-05-09T14:10:32.458Z,24.89
2024-05-09T14:11:37.729Z,24.88
2024-05-09T14:12:43.842Z,24.88
2024-05-09T14:13:49.907Z,24.9
2024-05-09T14:14:55.955Z,24.89
2024-05-09T14:16:02.208Z,24.9
2024-05-09T14:17:08.170Z,24.9
2024-05-09T14:18:14.820Z,24.89
2024-05-09T14:19:20.465Z,24.9